sensor_id;sensor_type;location;lat;lon;timestamp;temperature;humidity
19437;DHT22;9854;50.968;4.168;2022-11-21T00:00:26;8.10;99.90
19437;DHT22;9854;50.968;4.168;2022-11-21T00:02:51;8.00;99.90
19437;DHT22;9854;50.968;4.168;2022-11-21T00:05:17;8.00;99.90
19437;DHT22;9854;50.968;4.168;2022-11-21T00:07:43;8.00;99.90
19437;DHT22;9854;50.968;4.168;2022-11-21T00:10:11;8.10;99.90
19437;DHT22;9854;50.968;4.168;2022-11-21T00:12:36;8.00;99.90
19437;DHT22;9854;50.968;4.168;2022-11-21T00:15:03;7.90;99.90
19437;DHT22;9854;50.968;4.168;2022-11-21T00:17:28;8.00;99.90
19437;DHT22;9854;50.968;4.168;2022-11-21T00:19:54;7.90;99.90
19437;DHT22;9854;50.968;4.168;2022-11-21T00:22:19;7.80;99.90
19437;DHT22;9854;50.968;4.168;2022-11-21T00:24:45;7.70;99.90
19437;DHT22;9854;50.968;4.168;2022-11-21T00:27:10;7.70;99.90
19437;DHT22;9854;50.968;4.168;2022-11-21T00:29:36;7.70;99.90
19437;DHT22;9854;50.968;4.168;2022-11-21T00:32:02;7.70;99.90
19437;DHT22;9854;50.968;4.168;2022-11-21T00:34:27;7.80;99.90
19437;DHT22;9854;50.968;4.168;2022-11-21T00:36:53;7.80;99.90
19437;DHT22;9854;50.968;4.168;2022-11-21T00:39:18;7.80;99.90
19437;DHT22;9854;50.968;4.168;2022-11-21T00:41:44;7.80;99.90
19437;DHT22;9854;50.968;4.168;2022-11-21T00:44:10;7.80;99.90
19437;DHT22;9854;50.968;4.168;2022-11-21T00:46:35;7.90;99.90
19437;DHT22;9854;50.968;4.168;2022-11-21T00:49:01;7.90;99.90
19437;DHT22;9854;50.968;4.168;2022-11-21T00:51:27;8.10;99.90
19437;DHT22;9854;50.968;4.168;2022-11-21T00:53:52;8.00;99.90
19437;DHT22;9854;50.968;4.168;2022-11-21T00:56:18;8.00;99.90
19437;DHT22;9854;50.968;4.168;2022-11-21T00:58:43;7.90;99.90
19437;DHT22;9854;50.968;4.168;2022-11-21T01:01:12;7.90;99.90
19437;DHT22;9854;50.968;4.168;2022-11-21T01:03:39;8.00;99.90
19437;DHT22;9854;50.968;4.168;2022-11-21T01:06:09;8.00;99.90
19437;DHT22;9854;50.968;4.168;2022-11-21T01:08:37;8.10;99.90
19437;DHT22;9854;50.968;4.168;2022-11-21T01:11:07;8.00;99.90
19437;DHT22;9854;50.968;4.168;2022-11-21T01:13:34;7.90;99.90
19437;DHT22;9854;50.968;4.168;2022-11-21T01:16:04;7.90;99.90
19437;DHT22;9854;50.968;4.168;2022-11-21T01:18:30;7.90;99.90
19437;DHT22;9854;50.968;4.168;2022-11-21T01:21:17;7.80;99.90
19437;DHT22;9854;50.968;4.168;2022-11-21T01:23:43;7.80;99.90
19437;DHT22;9854;50.968;4.168;2022-11-21T01:26:12;7.90;99.90
19437;DHT22;9854;50.968;4.168;2022-11-21T01:28:38;7.90;99.90
19437;DHT22;9854;50.968;4.168;2022-11-21T01:31:06;8.10;99.90
19437;DHT22;9854;50.968;4.168;2022-11-21T01:33:32;8.00;99.90
19437;DHT22;9854;50.968;4.168;2022-11-21T01:38:45;7.90;99.90
19437;DHT22;9854;50.968;4.168;2022-11-21T01:41:13;8.00;99.90
19437;DHT22;9854;50.968;4.168;2022-11-21T01:43:39;8.00;99.90
19437;DHT22;9854;50.968;4.168;2022-11-21T01:46:09;8.00;99.90
19437;DHT22;9854;50.968;4.168;2022-11-21T01:51:36;8.10;99.90
19437;DHT22;9854;50.968;4.168;2022-11-21T01:57:10;8.20;99.90
19437;DHT22;9854;50.968;4.168;2022-11-21T01:59:47;8.20;99.90
19437;DHT22;9854;50.968;4.168;2022-11-21T02:02:17;8.10;99.90
19437;DHT22;9854;50.968;4.168;2022-11-21T02:04:45;8.10;99.90
19437;DHT22;9854;50.968;4.168;2022-11-21T02:07:13;8.10;99.90
19437;DHT22;9854;50.968;4.168;2022-11-21T02:09:41;8.00;99.90
19437;DHT22;9854;50.968;4.168;2022-11-21T02:12:12;8.00;99.90
19437;DHT22;9854;50.968;4.168;2022-11-21T02:14:41;7.90;99.90
19437;DHT22;9854;50.968;4.168;2022-11-21T02:17:08;8.00;99.90
19437;DHT22;9854;50.968;4.168;2022-11-21T02:22:16;8.00;99.90
19437;DHT22;9854;50.968;4.168;2022-11-21T02:27:22;8.10;99.90
19437;DHT22;9854;50.968;4.168;2022-11-21T02:29:48;8.00;99.90
19437;DHT22;9854;50.968;4.168;2022-11-21T02:32:24;8.00;99.90
19437;DHT22;9854;50.968;4.168;2022-11-21T02:34:50;8.00;99.90
19437;DHT22;9854;50.968;4.168;2022-11-21T02:37:17;7.90;99.90
19437;DHT22;9854;50.968;4.168;2022-11-21T02:39:43;7.80;99.90
19437;DHT22;9854;50.968;4.168;2022-11-21T02:45:13;8.00;99.90
19437;DHT22;9854;50.968;4.168;2022-11-21T02:47:41;7.90;99.90
19437;DHT22;9854;50.968;4.168;2022-11-21T02:50:14;7.80;99.90
19437;DHT22;9854;50.968;4.168;2022-11-21T02:52:42;7.90;99.90
19437;DHT22;9854;50.968;4.168;2022-11-21T02:55:08;7.90;99.90
19437;DHT22;9854;50.968;4.168;2022-11-21T02:57:33;7.90;99.90
19437;DHT22;9854;50.968;4.168;2022-11-21T02:59:59;8.00;99.90
19437;DHT22;9854;50.968;4.168;2022-11-21T03:02:25;8.00;99.90
19437;DHT22;9854;50.968;4.168;2022-11-21T03:04:50;8.10;99.90
19437;DHT22;9854;50.968;4.168;2022-11-21T03:07:16;8.20;99.90
19437;DHT22;9854;50.968;4.168;2022-11-21T03:09:41;8.00;99.90
19437;DHT22;9854;50.968;4.168;2022-11-21T03:12:08;7.90;99.90
19437;DHT22;9854;50.968;4.168;2022-11-21T03:14:35;7.80;99.90
19437;DHT22;9854;50.968;4.168;2022-11-21T03:17:01;7.80;99.90
19437;DHT22;9854;50.968;4.168;2022-11-21T03:19:27;7.90;99.90
19437;DHT22;9854;50.968;4.168;2022-11-21T03:21:53;7.70;99.90
19437;DHT22;9854;50.968;4.168;2022-11-21T03:24:19;7.70;99.90
19437;DHT22;9854;50.968;4.168;2022-11-21T03:26:44;7.60;99.90
19437;DHT22;9854;50.968;4.168;2022-11-21T03:29:10;7.70;99.90
19437;DHT22;9854;50.968;4.168;2022-11-21T03:31:36;7.80;99.90
19437;DHT22;9854;50.968;4.168;2022-11-21T03:34:02;8.00;99.90
19437;DHT22;9854;50.968;4.168;2022-11-21T03:36:27;8.00;99.90
19437;DHT22;9854;50.968;4.168;2022-11-21T03:38:56;7.80;99.90
19437;DHT22;9854;50.968;4.168;2022-11-21T03:41:23;7.90;99.90
19437;DHT22;9854;50.968;4.168;2022-11-21T03:44:03;7.90;99.90
19437;DHT22;9854;50.968;4.168;2022-11-21T03:46:30;7.90;99.90
19437;DHT22;9854;50.968;4.168;2022-11-21T03:48:56;8.00;99.90
19437;DHT22;9854;50.968;4.168;2022-11-21T03:51:22;8.00;99.90
19437;DHT22;9854;50.968;4.168;2022-11-21T03:53:48;8.00;99.90
19437;DHT22;9854;50.968;4.168;2022-11-21T03:56:14;7.90;99.90
19437;DHT22;9854;50.968;4.168;2022-11-21T03:58:40;7.80;99.90
19437;DHT22;9854;50.968;4.168;2022-11-21T04:01:06;7.80;99.90
19437;DHT22;9854;50.968;4.168;2022-11-21T04:03:32;7.70;99.90
19437;DHT22;9854;50.968;4.168;2022-11-21T04:05:57;7.70;99.90
19437;DHT22;9854;50.968;4.168;2022-11-21T04:08:23;7.60;99.90
19437;DHT22;9854;50.968;4.168;2022-11-21T04:10:50;7.70;99.90
19437;DHT22;9854;50.968;4.168;2022-11-21T04:13:16;7.70;99.90
19437;DHT22;9854;50.968;4.168;2022-11-21T04:15:42;7.80;99.90
19437;DHT22;9854;50.968;4.168;2022-11-21T04:18:08;7.80;99.90
19437;DHT22;9854;50.968;4.168;2022-11-21T04:20:34;7.80;99.90
19437;DHT22;9854;50.968;4.168;2022-11-21T04:23:00;7.90;99.90
19437;DHT22;9854;50.968;4.168;2022-11-21T04:25:25;7.90;99.90
19437;DHT22;9854;50.968;4.168;2022-11-21T04:27:55;7.70;99.90
19437;DHT22;9854;50.968;4.168;2022-11-21T04:30:20;7.70;99.90
19437;DHT22;9854;50.968;4.168;2022-11-21T04:32:46;7.80;99.90
19437;DHT22;9854;50.968;4.168;2022-11-21T04:35:13;7.80;99.90
19437;DHT22;9854;50.968;4.168;2022-11-21T04:37:39;7.60;99.90
19437;DHT22;9854;50.968;4.168;2022-11-21T04:40:05;7.50;99.90
19437;DHT22;9854;50.968;4.168;2022-11-21T04:42:31;7.50;99.90
19437;DHT22;9854;50.968;4.168;2022-11-21T04:44:56;7.40;99.90
19437;DHT22;9854;50.968;4.168;2022-11-21T04:47:22;7.40;99.90
19437;DHT22;9854;50.968;4.168;2022-11-21T04:49:47;7.40;99.90
19437;DHT22;9854;50.968;4.168;2022-11-21T04:52:13;7.20;99.90
19437;DHT22;9854;50.968;4.168;2022-11-21T04:54:39;7.20;99.90
19437;DHT22;9854;50.968;4.168;2022-11-21T04:57:04;7.20;99.90
19437;DHT22;9854;50.968;4.168;2022-11-21T04:59:30;7.20;99.90
19437;DHT22;9854;50.968;4.168;2022-11-21T05:01:55;7.20;99.90
19437;DHT22;9854;50.968;4.168;2022-11-21T05:04:21;7.20;99.90
19437;DHT22;9854;50.968;4.168;2022-11-21T05:06:46;7.30;99.90
19437;DHT22;9854;50.968;4.168;2022-11-21T05:09:12;7.20;99.90
19437;DHT22;9854;50.968;4.168;2022-11-21T05:11:38;7.10;99.90
19437;DHT22;9854;50.968;4.168;2022-11-21T05:14:22;6.90;99.90
19437;DHT22;9854;50.968;4.168;2022-11-21T05:16:51;6.80;99.90
19437;DHT22;9854;50.968;4.168;2022-11-21T05:19:16;6.80;99.90
19437;DHT22;9854;50.968;4.168;2022-11-21T05:21:42;6.70;99.90
19437;DHT22;9854;50.968;4.168;2022-11-21T05:24:07;6.70;99.90
19437;DHT22;9854;50.968;4.168;2022-11-21T05:26:33;6.80;99.90
19437;DHT22;9854;50.968;4.168;2022-11-21T05:28:59;6.80;99.90
19437;DHT22;9854;50.968;4.168;2022-11-21T05:31:24;6.60;99.90
19437;DHT22;9854;50.968;4.168;2022-11-21T05:33:50;6.50;99.90
19437;DHT22;9854;50.968;4.168;2022-11-21T05:36:15;6.40;99.90
19437;DHT22;9854;50.968;4.168;2022-11-21T05:38:42;6.40;99.90
19437;DHT22;9854;50.968;4.168;2022-11-21T05:41:07;6.30;99.90
19437;DHT22;9854;50.968;4.168;2022-11-21T05:43:33;6.30;99.90
19437;DHT22;9854;50.968;4.168;2022-11-21T05:46:11;6.50;99.90
19437;DHT22;9854;50.968;4.168;2022-11-21T05:48:38;6.30;99.90
19437;DHT22;9854;50.968;4.168;2022-11-21T05:51:04;6.30;99.90
19437;DHT22;9854;50.968;4.168;2022-11-21T05:53:29;6.50;99.90
19437;DHT22;9854;50.968;4.168;2022-11-21T05:55:55;6.50;99.90
19437;DHT22;9854;50.968;4.168;2022-11-21T05:58:20;6.50;99.90
19437;DHT22;9854;50.968;4.168;2022-11-21T06:00:46;6.40;99.90
19437;DHT22;9854;50.968;4.168;2022-11-21T06:03:12;6.40;99.90
19437;DHT22;9854;50.968;4.168;2022-11-21T06:08:34;6.40;99.90
19437;DHT22;9854;50.968;4.168;2022-11-21T06:11:01;6.30;99.90
19437;DHT22;9854;50.968;4.168;2022-11-21T06:13:27;6.40;99.90
19437;DHT22;9854;50.968;4.168;2022-11-21T06:16:02;6.10;99.90
19437;DHT22;9854;50.968;4.168;2022-11-21T06:18:31;6.00;99.90
19437;DHT22;9854;50.968;4.168;2022-11-21T06:21:01;5.90;99.90
19437;DHT22;9854;50.968;4.168;2022-11-21T06:23:27;5.90;99.90
19437;DHT22;9854;50.968;4.168;2022-11-21T06:26:00;6.10;99.90
19437;DHT22;9854;50.968;4.168;2022-11-21T06:28:30;6.10;99.90
19437;DHT22;9854;50.968;4.168;2022-11-21T06:31:05;6.20;99.90
19437;DHT22;9854;50.968;4.168;2022-11-21T06:33:31;6.30;99.90
19437;DHT22;9854;50.968;4.168;2022-11-21T06:35:57;6.20;99.90
19437;DHT22;9854;50.968;4.168;2022-11-21T06:38:26;6.20;99.90
19437;DHT22;9854;50.968;4.168;2022-11-21T06:40:52;6.10;99.90
19437;DHT22;9854;50.968;4.168;2022-11-21T06:43:17;6.00;99.90
19437;DHT22;9854;50.968;4.168;2022-11-21T06:45:43;6.20;99.90
19437;DHT22;9854;50.968;4.168;2022-11-21T06:48:08;6.10;99.90
19437;DHT22;9854;50.968;4.168;2022-11-21T06:50:34;6.10;99.90
19437;DHT22;9854;50.968;4.168;2022-11-21T06:53:00;6.10;99.90
19437;DHT22;9854;50.968;4.168;2022-11-21T06:55:26;6.00;99.90
19437;DHT22;9854;50.968;4.168;2022-11-21T06:57:56;6.00;99.90
19437;DHT22;9854;50.968;4.168;2022-11-21T07:00:22;5.90;99.90
19437;DHT22;9854;50.968;4.168;2022-11-21T07:02:49;5.80;99.90
19437;DHT22;9854;50.968;4.168;2022-11-21T07:05:14;5.80;99.90
19437;DHT22;9854;50.968;4.168;2022-11-21T07:07:40;5.80;99.90
19437;DHT22;9854;50.968;4.168;2022-11-21T07:10:06;5.90;99.90
19437;DHT22;9854;50.968;4.168;2022-11-21T07:12:33;5.80;99.90
19437;DHT22;9854;50.968;4.168;2022-11-21T07:15:18;5.90;99.90
19437;DHT22;9854;50.968;4.168;2022-11-21T07:17:43;5.70;99.90
19437;DHT22;9854;50.968;4.168;2022-11-21T07:20:09;5.70;99.90
19437;DHT22;9854;50.968;4.168;2022-11-21T07:22:35;5.70;99.90
19437;DHT22;9854;50.968;4.168;2022-11-21T07:25:01;5.80;99.90
19437;DHT22;9854;50.968;4.168;2022-11-21T07:27:26;5.80;99.90
19437;DHT22;9854;50.968;4.168;2022-11-21T07:29:52;5.70;99.90
19437;DHT22;9854;50.968;4.168;2022-11-21T07:32:18;5.60;99.90
19437;DHT22;9854;50.968;4.168;2022-11-21T07:34:43;5.60;99.90
19437;DHT22;9854;50.968;4.168;2022-11-21T07:37:09;5.60;99.90
19437;DHT22;9854;50.968;4.168;2022-11-21T07:39:34;5.70;99.90
19437;DHT22;9854;50.968;4.168;2022-11-21T07:42:03;5.60;99.90
19437;DHT22;9854;50.968;4.168;2022-11-21T07:44:29;5.70;99.90
19437;DHT22;9854;50.968;4.168;2022-11-21T07:46:54;5.70;99.90
19437;DHT22;9854;50.968;4.168;2022-11-21T07:49:21;5.90;99.90
19437;DHT22;9854;50.968;4.168;2022-11-21T07:51:46;5.90;99.90
19437;DHT22;9854;50.968;4.168;2022-11-21T07:54:12;5.90;99.90
19437;DHT22;9854;50.968;4.168;2022-11-21T07:56:37;5.90;99.90
19437;DHT22;9854;50.968;4.168;2022-11-21T07:59:03;6.00;99.90
19437;DHT22;9854;50.968;4.168;2022-11-21T08:01:28;6.00;99.90
19437;DHT22;9854;50.968;4.168;2022-11-21T08:03:54;6.10;99.90
19437;DHT22;9854;50.968;4.168;2022-11-21T08:06:20;6.20;99.90
19437;DHT22;9854;50.968;4.168;2022-11-21T08:08:45;6.30;99.90
19437;DHT22;9854;50.968;4.168;2022-11-21T08:11:12;6.30;99.90
19437;DHT22;9854;50.968;4.168;2022-11-21T08:13:38;6.20;99.90
19437;DHT22;9854;50.968;4.168;2022-11-21T08:16:03;6.10;99.90
19437;DHT22;9854;50.968;4.168;2022-11-21T08:18:29;6.20;99.90
19437;DHT22;9854;50.968;4.168;2022-11-21T08:20:55;6.30;99.90
19437;DHT22;9854;50.968;4.168;2022-11-21T08:23:21;6.40;99.90
19437;DHT22;9854;50.968;4.168;2022-11-21T08:25:46;6.60;99.90
19437;DHT22;9854;50.968;4.168;2022-11-21T08:28:12;6.60;99.90
19437;DHT22;9854;50.968;4.168;2022-11-21T08:30:39;6.60;99.90
19437;DHT22;9854;50.968;4.168;2022-11-21T08:33:05;6.50;99.90
19437;DHT22;9854;50.968;4.168;2022-11-21T08:35:30;6.40;99.90
19437;DHT22;9854;50.968;4.168;2022-11-21T08:37:57;6.40;99.90
19437;DHT22;9854;50.968;4.168;2022-11-21T08:40:24;6.50;99.90
19437;DHT22;9854;50.968;4.168;2022-11-21T08:43:01;6.70;99.90
19437;DHT22;9854;50.968;4.168;2022-11-21T08:45:28;6.80;99.90
19437;DHT22;9854;50.968;4.168;2022-11-21T08:47:54;6.80;99.90
19437;DHT22;9854;50.968;4.168;2022-11-21T08:50:21;6.80;99.90
19437;DHT22;9854;50.968;4.168;2022-11-21T08:52:47;6.90;99.90
19437;DHT22;9854;50.968;4.168;2022-11-21T08:55:13;6.90;99.90
19437;DHT22;9854;50.968;4.168;2022-11-21T08:57:39;7.10;99.90
19437;DHT22;9854;50.968;4.168;2022-11-21T09:00:06;7.30;99.90
19437;DHT22;9854;50.968;4.168;2022-11-21T09:02:32;7.50;99.90
19437;DHT22;9854;50.968;4.168;2022-11-21T09:04:58;7.50;99.90
19437;DHT22;9854;50.968;4.168;2022-11-21T09:07:24;7.60;99.90
19437;DHT22;9854;50.968;4.168;2022-11-21T09:09:50;7.80;99.90
19437;DHT22;9854;50.968;4.168;2022-11-21T09:12:15;7.80;99.90
19437;DHT22;9854;50.968;4.168;2022-11-21T09:14:41;7.80;99.90
19437;DHT22;9854;50.968;4.168;2022-11-21T09:17:25;7.80;99.90
19437;DHT22;9854;50.968;4.168;2022-11-21T09:20:09;8.00;99.90
19437;DHT22;9854;50.968;4.168;2022-11-21T09:22:35;8.00;99.90
19437;DHT22;9854;50.968;4.168;2022-11-21T09:25:01;8.10;99.90
19437;DHT22;9854;50.968;4.168;2022-11-21T09:27:26;8.30;99.90
19437;DHT22;9854;50.968;4.168;2022-11-21T09:29:52;8.30;99.90
19437;DHT22;9854;50.968;4.168;2022-11-21T09:32:18;8.40;99.90
19437;DHT22;9854;50.968;4.168;2022-11-21T09:34:43;8.50;99.90
19437;DHT22;9854;50.968;4.168;2022-11-21T09:37:09;8.60;99.90
19437;DHT22;9854;50.968;4.168;2022-11-21T09:39:34;8.60;99.90
19437;DHT22;9854;50.968;4.168;2022-11-21T09:44:57;8.70;99.90
19437;DHT22;9854;50.968;4.168;2022-11-21T09:47:43;8.80;99.90
19437;DHT22;9854;50.968;4.168;2022-11-21T09:58:10;9.50;99.90
19437;DHT22;9854;50.968;4.168;2022-11-21T10:00:39;9.30;99.90
19437;DHT22;9854;50.968;4.168;2022-11-21T10:03:04;9.20;99.90
19437;DHT22;9854;50.968;4.168;2022-11-21T10:05:57;9.20;99.90
19437;DHT22;9854;50.968;4.168;2022-11-21T10:14:42;9.60;99.90
19437;DHT22;9854;50.968;4.168;2022-11-21T10:19:55;9.40;99.90
19437;DHT22;9854;50.968;4.168;2022-11-21T10:22:37;9.10;99.90
19437;DHT22;9854;50.968;4.168;2022-11-21T10:25:17;9.10;99.90
19437;DHT22;9854;50.968;4.168;2022-11-21T10:28:00;9.00;99.90
19437;DHT22;9854;50.968;4.168;2022-11-21T10:30:26;9.00;99.90
19437;DHT22;9854;50.968;4.168;2022-11-21T10:32:57;8.90;99.90
19437;DHT22;9854;50.968;4.168;2022-11-21T10:35:33;8.90;99.90
19437;DHT22;9854;50.968;4.168;2022-11-21T10:38:01;8.80;99.90
19437;DHT22;9854;50.968;4.168;2022-11-21T10:40:46;9.00;99.90
19437;DHT22;9854;50.968;4.168;2022-11-21T10:43:25;9.10;99.90
19437;DHT22;9854;50.968;4.168;2022-11-21T10:46:12;9.20;99.90
19437;DHT22;9854;50.968;4.168;2022-11-21T10:48:38;9.40;99.90
19437;DHT22;9854;50.968;4.168;2022-11-21T10:54:12;9.30;99.90
19437;DHT22;9854;50.968;4.168;2022-11-21T10:57:15;9.30;99.90
19437;DHT22;9854;50.968;4.168;2022-11-21T10:59:58;9.40;99.90
19437;DHT22;9854;50.968;4.168;2022-11-21T11:02:25;9.40;99.90
19437;DHT22;9854;50.968;4.168;2022-11-21T11:07:38;9.40;99.90
19437;DHT22;9854;50.968;4.168;2022-11-21T11:10:22;9.40;99.90
19437;DHT22;9854;50.968;4.168;2022-11-21T11:12:49;9.50;99.90
19437;DHT22;9854;50.968;4.168;2022-11-21T11:15:35;9.60;99.90
19437;DHT22;9854;50.968;4.168;2022-11-21T11:18:02;9.80;99.90
19437;DHT22;9854;50.968;4.168;2022-11-21T11:20:40;9.80;99.90
19437;DHT22;9854;50.968;4.168;2022-11-21T11:25:55;9.70;99.90
19437;DHT22;9854;50.968;4.168;2022-11-21T11:28:22;9.80;99.90
19437;DHT22;9854;50.968;4.168;2022-11-21T11:30:49;9.60;99.90
19437;DHT22;9854;50.968;4.168;2022-11-21T11:33:32;9.60;99.90
19437;DHT22;9854;50.968;4.168;2022-11-21T11:36:20;9.60;99.90
19437;DHT22;9854;50.968;4.168;2022-11-21T11:45:04;9.60;99.90
19437;DHT22;9854;50.968;4.168;2022-11-21T11:47:57;9.50;99.90
19437;DHT22;9854;50.968;4.168;2022-11-21T11:50:30;9.50;99.90
19437;DHT22;9854;50.968;4.168;2022-11-21T11:56:23;9.70;99.90
19437;DHT22;9854;50.968;4.168;2022-11-21T12:01:41;9.50;99.90
19437;DHT22;9854;50.968;4.168;2022-11-21T12:06:59;9.50;99.90
19437;DHT22;9854;50.968;4.168;2022-11-21T12:12:32;9.60;99.90
19437;DHT22;9854;50.968;4.168;2022-11-21T12:20:56;9.80;99.90
19437;DHT22;9854;50.968;4.168;2022-11-21T12:35:10;9.80;99.90
19437;DHT22;9854;50.968;4.168;2022-11-21T12:40:45;10.10;99.90
19437;DHT22;9854;50.968;4.168;2022-11-21T12:43:33;10.00;99.90
19437;DHT22;9854;50.968;4.168;2022-11-21T12:46:21;10.10;99.90
19437;DHT22;9854;50.968;4.168;2022-11-21T12:49:13;10.30;99.90
19437;DHT22;9854;50.968;4.168;2022-11-21T12:52:19;10.40;99.90
19437;DHT22;9854;50.968;4.168;2022-11-21T13:03:27;10.50;99.90
19437;DHT22;9854;50.968;4.168;2022-11-21T13:05:56;10.70;99.90
19437;DHT22;9854;50.968;4.168;2022-11-21T13:08:25;10.60;99.90
19437;DHT22;9854;50.968;4.168;2022-11-21T13:14:08;10.90;99.90
19437;DHT22;9854;50.968;4.168;2022-11-21T13:16:38;10.90;99.90
19437;DHT22;9854;50.968;4.168;2022-11-21T13:19:26;10.70;99.90
19437;DHT22;9854;50.968;4.168;2022-11-21T13:21:53;10.50;99.90
19437;DHT22;9854;50.968;4.168;2022-11-21T13:27:06;10.50;99.90
19437;DHT22;9854;50.968;4.168;2022-11-21T13:29:33;10.50;99.90
19437;DHT22;9854;50.968;4.168;2022-11-21T13:45:48;10.60;99.90
19437;DHT22;9854;50.968;4.168;2022-11-21T14:04:32;11.00;99.90
19437;DHT22;9854;50.968;4.168;2022-11-21T14:07:20;11.20;99.90
19437;DHT22;9854;50.968;4.168;2022-11-21T14:09:49;11.20;99.90
19437;DHT22;9854;50.968;4.168;2022-11-21T14:12:53;11.10;99.90
19437;DHT22;9854;50.968;4.168;2022-11-21T14:15:29;11.20;99.90
19437;DHT22;9854;50.968;4.168;2022-11-21T14:17:58;11.10;99.90
19437;DHT22;9854;50.968;4.168;2022-11-21T14:23:17;11.10;99.90
19437;DHT22;9854;50.968;4.168;2022-11-21T14:25:53;11.20;99.90
19437;DHT22;9854;50.968;4.168;2022-11-21T14:28:28;11.20;99.90
19437;DHT22;9854;50.968;4.168;2022-11-21T14:31:07;11.30;99.90
19437;DHT22;9854;50.968;4.168;2022-11-21T14:33:34;11.30;99.90
19437;DHT22;9854;50.968;4.168;2022-11-21T14:36:04;11.00;99.90
19437;DHT22;9854;50.968;4.168;2022-11-21T14:38:34;11.00;99.90
19437;DHT22;9854;50.968;4.168;2022-11-21T14:44:34;11.00;99.90
19437;DHT22;9854;50.968;4.168;2022-11-21T14:46:39;11.00;99.90
19437;DHT22;9854;50.968;4.168;2022-11-21T14:49:18;10.90;99.90
19437;DHT22;9854;50.968;4.168;2022-11-21T14:52:01;10.70;99.90
19437;DHT22;9854;50.968;4.168;2022-11-21T14:54:30;10.60;99.90
19437;DHT22;9854;50.968;4.168;2022-11-21T14:57:06;10.50;99.90
19437;DHT22;9854;50.968;4.168;2022-11-21T14:59:38;10.40;99.90
19437;DHT22;9854;50.968;4.168;2022-11-21T15:02:19;10.10;99.90
19437;DHT22;9854;50.968;4.168;2022-11-21T15:04:47;10.20;99.90
19437;DHT22;9854;50.968;4.168;2022-11-21T15:07:40;10.20;99.90
19437;DHT22;9854;50.968;4.168;2022-11-21T15:10:14;10.30;99.90
19437;DHT22;9854;50.968;4.168;2022-11-21T15:12:48;10.20;99.90
19437;DHT22;9854;50.968;4.168;2022-11-21T15:15:28;10.30;99.90
19437;DHT22;9854;50.968;4.168;2022-11-21T15:18:00;10.20;99.90
19437;DHT22;9854;50.968;4.168;2022-11-21T15:20:27;10.30;99.90
19437;DHT22;9854;50.968;4.168;2022-11-21T15:23:00;10.30;99.90
19437;DHT22;9854;50.968;4.168;2022-11-21T15:25:31;10.30;99.90
19437;DHT22;9854;50.968;4.168;2022-11-21T15:28:13;10.40;99.90
19437;DHT22;9854;50.968;4.168;2022-11-21T15:30:39;10.30;99.90
19437;DHT22;9854;50.968;4.168;2022-11-21T15:35:53;10.20;99.90
19437;DHT22;9854;50.968;4.168;2022-11-21T15:38:31;10.20;99.90
19437;DHT22;9854;50.968;4.168;2022-11-21T15:46:03;10.10;99.90
19437;DHT22;9854;50.968;4.168;2022-11-21T15:48:29;10.20;99.90
19437;DHT22;9854;50.968;4.168;2022-11-21T15:50:55;10.40;99.90
19437;DHT22;9854;50.968;4.168;2022-11-21T15:53:21;10.40;99.90
19437;DHT22;9854;50.968;4.168;2022-11-21T15:55:47;10.50;99.90
19437;DHT22;9854;50.968;4.168;2022-11-21T15:58:12;10.50;99.90
19437;DHT22;9854;50.968;4.168;2022-11-21T16:00:38;10.50;99.90
19437;DHT22;9854;50.968;4.168;2022-11-21T16:03:04;10.50;99.90
19437;DHT22;9854;50.968;4.168;2022-11-21T16:05:29;10.50;99.90
19437;DHT22;9854;50.968;4.168;2022-11-21T16:07:55;10.50;99.90
19437;DHT22;9854;50.968;4.168;2022-11-21T16:10:20;10.40;99.90
19437;DHT22;9854;50.968;4.168;2022-11-21T16:12:46;10.40;99.90
19437;DHT22;9854;50.968;4.168;2022-11-21T16:15:12;10.30;99.90
19437;DHT22;9854;50.968;4.168;2022-11-21T16:17:37;10.30;99.90
19437;DHT22;9854;50.968;4.168;2022-11-21T16:20:05;10.30;99.90
19437;DHT22;9854;50.968;4.168;2022-11-21T16:22:30;10.20;99.90
19437;DHT22;9854;50.968;4.168;2022-11-21T16:24:56;10.30;99.90
19437;DHT22;9854;50.968;4.168;2022-11-21T16:27:22;10.30;99.90
19437;DHT22;9854;50.968;4.168;2022-11-21T16:29:47;10.20;99.90
19437;DHT22;9854;50.968;4.168;2022-11-21T16:32:13;10.20;99.90
19437;DHT22;9854;50.968;4.168;2022-11-21T16:34:38;10.30;99.90
19437;DHT22;9854;50.968;4.168;2022-11-21T16:37:04;10.30;99.90
19437;DHT22;9854;50.968;4.168;2022-11-21T16:39:30;10.10;99.90
19437;DHT22;9854;50.968;4.168;2022-11-21T16:41:55;10.00;99.90
19437;DHT22;9854;50.968;4.168;2022-11-21T16:44:21;10.00;99.90
19437;DHT22;9854;50.968;4.168;2022-11-21T16:46:47;9.80;99.90
19437;DHT22;9854;50.968;4.168;2022-11-21T16:49:13;9.90;99.90
19437;DHT22;9854;50.968;4.168;2022-11-21T16:51:39;9.90;99.90
19437;DHT22;9854;50.968;4.168;2022-11-21T16:54:05;9.80;99.90
19437;DHT22;9854;50.968;4.168;2022-11-21T16:56:31;10.00;99.90
19437;DHT22;9854;50.968;4.168;2022-11-21T16:58:56;10.10;99.90
19437;DHT22;9854;50.968;4.168;2022-11-21T17:01:23;9.90;99.90
19437;DHT22;9854;50.968;4.168;2022-11-21T17:03:49;9.90;99.90
19437;DHT22;9854;50.968;4.168;2022-11-21T17:06:20;10.10;99.90
19437;DHT22;9854;50.968;4.168;2022-11-21T17:08:46;10.10;99.90
19437;DHT22;9854;50.968;4.168;2022-11-21T17:11:17;9.80;99.90
19437;DHT22;9854;50.968;4.168;2022-11-21T17:13:45;9.90;99.90
19437;DHT22;9854;50.968;4.168;2022-11-21T17:16:12;10.00;99.90
19437;DHT22;9854;50.968;4.168;2022-11-21T17:18:39;9.90;99.90
19437;DHT22;9854;50.968;4.168;2022-11-21T17:21:11;9.90;99.90
19437;DHT22;9854;50.968;4.168;2022-11-21T17:23:38;9.90;99.90
19437;DHT22;9854;50.968;4.168;2022-11-21T17:26:07;9.80;99.90
19437;DHT22;9854;50.968;4.168;2022-11-21T17:28:33;9.70;99.90
19437;DHT22;9854;50.968;4.168;2022-11-21T17:30:59;9.80;99.90
19437;DHT22;9854;50.968;4.168;2022-11-21T17:33:29;9.80;99.90
19437;DHT22;9854;50.968;4.168;2022-11-21T17:35:55;9.80;99.90
19437;DHT22;9854;50.968;4.168;2022-11-21T17:38:20;9.80;99.90
19437;DHT22;9854;50.968;4.168;2022-11-21T17:40:46;9.80;99.90
19437;DHT22;9854;50.968;4.168;2022-11-21T17:43:12;9.80;99.90
19437;DHT22;9854;50.968;4.168;2022-11-21T17:45:37;9.80;99.90
19437;DHT22;9854;50.968;4.168;2022-11-21T17:48:03;9.90;99.90
19437;DHT22;9854;50.968;4.168;2022-11-21T17:50:29;9.80;99.90
19437;DHT22;9854;50.968;4.168;2022-11-21T17:52:55;9.80;99.90
19437;DHT22;9854;50.968;4.168;2022-11-21T17:55:21;9.80;99.90
19437;DHT22;9854;50.968;4.168;2022-11-21T17:57:47;9.80;99.90
19437;DHT22;9854;50.968;4.168;2022-11-21T18:00:13;10.00;99.90
19437;DHT22;9854;50.968;4.168;2022-11-21T18:02:38;10.10;99.90
19437;DHT22;9854;50.968;4.168;2022-11-21T18:05:04;9.90;99.90
19437;DHT22;9854;50.968;4.168;2022-11-21T18:07:33;9.80;99.90
19437;DHT22;9854;50.968;4.168;2022-11-21T18:09:58;9.90;99.90
19437;DHT22;9854;50.968;4.168;2022-11-21T18:12:24;9.90;99.90
19437;DHT22;9854;50.968;4.168;2022-11-21T18:14:49;10.10;99.90
19437;DHT22;9854;50.968;4.168;2022-11-21T18:17:15;10.00;99.90
19437;DHT22;9854;50.968;4.168;2022-11-21T18:19:41;10.10;99.90
19437;DHT22;9854;50.968;4.168;2022-11-21T18:22:07;10.10;99.90
19437;DHT22;9854;50.968;4.168;2022-11-21T18:24:33;10.00;99.90
19437;DHT22;9854;50.968;4.168;2022-11-21T18:26:58;9.90;99.90
19437;DHT22;9854;50.968;4.168;2022-11-21T18:29:24;9.90;99.90
19437;DHT22;9854;50.968;4.168;2022-11-21T18:31:51;10.10;99.90